sensor_id;sensor_type;location;lat;lon;timestamp;P1;P2;P0
79537;PMS5003;68989;52.032;5.152;2023-07-13T00:02:00;4;2;
79537;PMS5003;68989;52.032;5.152;2023-07-13T00:04:28;3;3;
79537;PMS5003;68989;52.032;5.152;2023-07-13T00:06:55;2;2;
79537;PMS5003;68989;52.032;5.152;2023-07-13T00:09:23;3;3;
79537;PMS5003;68989;52.032;5.152;2023-07-13T00:11:51;1;1;
79537;PMS5003;68989;52.032;5.152;2023-07-13T00:14:24;1;1;
79537;PMS5003;68989;52.032;5.152;2023-07-13T00:16:52;4;2;
79537;PMS5003;68989;52.032;5.152;2023-07-13T00:19:19;3;1;
79537;PMS5003;68989;52.032;5.152;2023-07-13T00:21:47;1;1;
79537;PMS5003;68989;52.032;5.152;2023-07-13T00:24:16;0;0;
79537;PMS5003;68989;52.032;5.152;2023-07-13T00:26:44;2;2;
79537;PMS5003;68989;52.032;5.152;2023-07-13T00:29:12;2;2;
79537;PMS5003;68989;52.032;5.152;2023-07-13T00:31:39;1;1;
79537;PMS5003;68989;52.032;5.152;2023-07-13T00:34:07;3;2;
79537;PMS5003;68989;52.032;5.152;2023-07-13T00:36:34;2;2;
79537;PMS5003;68989;52.032;5.152;2023-07-13T00:39:02;4;4;
79537;PMS5003;68989;52.032;5.152;2023-07-13T00:41:31;4;2;
79537;PMS5003;68989;52.032;5.152;2023-07-13T00:43:59;4;4;
79537;PMS5003;68989;52.032;5.152;2023-07-13T00:46:27;1;1;
79537;PMS5003;68989;52.032;5.152;2023-07-13T00:48:57;2;2;
79537;PMS5003;68989;52.032;5.152;2023-07-13T00:51:30;3;1;
79537;PMS5003;68989;52.032;5.152;2023-07-13T00:54:03;2;2;
79537;PMS5003;68989;52.032;5.152;2023-07-13T00:56:33;5;3;
79537;PMS5003;68989;52.032;5.152;2023-07-13T00:59:02;2;2;
79537;PMS5003;68989;52.032;5.152;2023-07-13T01:01:33;2;2;
79537;PMS5003;68989;52.032;5.152;2023-07-13T01:04:00;3;3;
79537;PMS5003;68989;52.032;5.152;2023-07-13T01:06:27;2;2;
79537;PMS5003;68989;52.032;5.152;2023-07-13T01:08:54;2;2;
79537;PMS5003;68989;52.032;5.152;2023-07-13T01:11:24;2;1;
79537;PMS5003;68989;52.032;5.152;2023-07-13T01:13:51;4;4;
79537;PMS5003;68989;52.032;5.152;2023-07-13T01:16:21;2;2;
79537;PMS5003;68989;52.032;5.152;2023-07-13T01:18:51;3;3;
79537;PMS5003;68989;52.032;5.152;2023-07-13T01:21:17;1;1;
79537;PMS5003;68989;52.032;5.152;2023-07-13T01:23:45;2;2;
79537;PMS5003;68989;52.032;5.152;2023-07-13T01:26:13;2;2;
79537;PMS5003;68989;52.032;5.152;2023-07-13T01:28:40;2;2;
79537;PMS5003;68989;52.032;5.152;2023-07-13T01:31:08;4;3;
79537;PMS5003;68989;52.032;5.152;2023-07-13T01:33:36;2;2;
79537;PMS5003;68989;52.032;5.152;2023-07-13T01:36:04;3;3;
79537;PMS5003;68989;52.032;5.152;2023-07-13T01:38:32;4;4;
79537;PMS5003;68989;52.032;5.152;2023-07-13T01:40:59;1;1;
79537;PMS5003;68989;52.032;5.152;2023-07-13T01:43:27;2;2;
79537;PMS5003;68989;52.032;5.152;2023-07-13T01:45:55;3;3;
79537;PMS5003;68989;52.032;5.152;2023-07-13T01:48:22;2;2;
79537;PMS5003;68989;52.032;5.152;2023-07-13T01:50:49;1;1;
79537;PMS5003;68989;52.032;5.152;2023-07-13T01:53:17;2;2;
79537;PMS5003;68989;52.032;5.152;2023-07-13T01:55:44;2;2;
79537;PMS5003;68989;52.032;5.152;2023-07-13T01:58:12;3;3;
79537;PMS5003;68989;52.032;5.152;2023-07-13T02:00:38;3;2;
79537;PMS5003;68989;52.032;5.152;2023-07-13T02:03:05;3;3;
79537;PMS5003;68989;52.032;5.152;2023-07-13T02:05:32;5;3;
79537;PMS5003;68989;52.032;5.152;2023-07-13T02:08:00;3;3;
79537;PMS5003;68989;52.032;5.152;2023-07-13T02:10:26;2;2;
79537;PMS5003;68989;52.032;5.152;2023-07-13T02:12:54;3;3;
79537;PMS5003;68989;52.032;5.152;2023-07-13T02:15:21;5;3;
79537;PMS5003;68989;52.032;5.152;2023-07-13T02:17:48;5;5;
79537;PMS5003;68989;52.032;5.152;2023-07-13T02:20:15;5;4;
79537;PMS5003;68989;52.032;5.152;2023-07-13T02:22:42;4;4;
79537;PMS5003;68989;52.032;5.152;2023-07-13T02:25:09;3;3;
79537;PMS5003;68989;52.032;5.152;2023-07-13T02:27:36;2;2;
79537;PMS5003;68989;52.032;5.152;2023-07-13T02:30:04;4;4;
79537;PMS5003;68989;52.032;5.152;2023-07-13T02:32:32;3;3;
79537;PMS5003;68989;52.032;5.152;2023-07-13T02:35:00;5;5;
79537;PMS5003;68989;52.032;5.152;2023-07-13T02:37:28;6;4;
79537;PMS5003;68989;52.032;5.152;2023-07-13T02:39:55;3;2;
79537;PMS5003;68989;52.032;5.152;2023-07-13T02:42:23;5;3;
79537;PMS5003;68989;52.032;5.152;2023-07-13T02:44:49;3;3;
79537;PMS5003;68989;52.032;5.152;2023-07-13T02:47:17;3;3;
79537;PMS5003;68989;52.032;5.152;2023-07-13T02:49:44;4;4;
79537;PMS5003;68989;52.032;5.152;2023-07-13T02:52:11;4;2;
79537;PMS5003;68989;52.032;5.152;2023-07-13T02:54:38;4;4;
79537;PMS5003;68989;52.032;5.152;2023-07-13T02:57:05;4;4;
79537;PMS5003;68989;52.032;5.152;2023-07-13T02:59:33;2;2;
79537;PMS5003;68989;52.032;5.152;2023-07-13T03:02:00;3;3;
79537;PMS5003;68989;52.032;5.152;2023-07-13T03:04:28;3;3;
79537;PMS5003;68989;52.032;5.152;2023-07-13T03:06:56;5;4;
79537;PMS5003;68989;52.032;5.152;2023-07-13T03:09:23;4;3;
79537;PMS5003;68989;52.032;5.152;2023-07-13T03:11:52;4;4;
79537;PMS5003;68989;52.032;5.152;2023-07-13T03:14:19;3;3;
79537;PMS5003;68989;52.032;5.152;2023-07-13T03:16:48;3;3;
79537;PMS5003;68989;52.032;5.152;2023-07-13T03:19:15;6;5;
79537;PMS5003;68989;52.032;5.152;2023-07-13T03:21:42;4;4;
79537;PMS5003;68989;52.032;5.152;2023-07-13T03:24:09;2;2;
79537;PMS5003;68989;52.032;5.152;2023-07-13T03:26:37;4;4;
79537;PMS5003;68989;52.032;5.152;2023-07-13T03:29:05;4;4;
79537;PMS5003;68989;52.032;5.152;2023-07-13T03:31:33;5;4;
79537;PMS5003;68989;52.032;5.152;2023-07-13T03:34:03;5;3;
79537;PMS5003;68989;52.032;5.152;2023-07-13T03:36:31;4;4;
79537;PMS5003;68989;52.032;5.152;2023-07-13T03:38:59;3;3;
79537;PMS5003;68989;52.032;5.152;2023-07-13T03:41:28;3;3;
79537;PMS5003;68989;52.032;5.152;2023-07-13T03:43:55;4;4;
79537;PMS5003;68989;52.032;5.152;2023-07-13T03:46:23;4;2;
79537;PMS5003;68989;52.032;5.152;2023-07-13T03:48:50;3;3;
79537;PMS5003;68989;52.032;5.152;2023-07-13T03:51:19;3;3;
79537;PMS5003;68989;52.032;5.152;2023-07-13T03:53:47;5;4;
79537;PMS5003;68989;52.032;5.152;2023-07-13T03:56:15;3;3;
79537;PMS5003;68989;52.032;5.152;2023-07-13T03:58:44;5;3;
79537;PMS5003;68989;52.032;5.152;2023-07-13T04:01:13;4;4;
79537;PMS5003;68989;52.032;5.152;2023-07-13T04:03:42;5;4;
79537;PMS5003;68989;52.032;5.152;2023-07-13T04:06:12;3;3;
79537;PMS5003;68989;52.032;5.152;2023-07-13T04:08:42;6;4;
79537;PMS5003;68989;52.032;5.152;2023-07-13T04:11:09;4;4;
79537;PMS5003;68989;52.032;5.152;2023-07-13T04:13:35;6;4;
79537;PMS5003;68989;52.032;5.152;2023-07-13T04:16:02;4;4;
79537;PMS5003;68989;52.032;5.152;2023-07-13T04:18:29;3;3;
79537;PMS5003;68989;52.032;5.152;2023-07-13T04:20:56;2;2;
79537;PMS5003;68989;52.032;5.152;2023-07-13T04:23:24;3;3;
79537;PMS5003;68989;52.032;5.152;2023-07-13T04:25:51;3;3;
79537;PMS5003;68989;52.032;5.152;2023-07-13T04:28:20;4;4;
79537;PMS5003;68989;52.032;5.152;2023-07-13T04:30:49;4;4;
79537;PMS5003;68989;52.032;5.152;2023-07-13T04:33:16;4;4;
79537;PMS5003;68989;52.032;5.152;2023-07-13T04:35:44;6;5;
79537;PMS5003;68989;52.032;5.152;2023-07-13T04:38:11;3;3;
79537;PMS5003;68989;52.032;5.152;2023-07-13T04:40:38;6;6;
79537;PMS5003;68989;52.032;5.152;2023-07-13T04:43:05;4;4;
79537;PMS5003;68989;52.032;5.152;2023-07-13T04:45:31;5;4;
79537;PMS5003;68989;52.032;5.152;2023-07-13T04:47:58;4;4;
79537;PMS5003;68989;52.032;5.152;2023-07-13T04:50:25;4;4;
79537;PMS5003;68989;52.032;5.152;2023-07-13T04:52:53;5;5;
79537;PMS5003;68989;52.032;5.152;2023-07-13T04:55:20;5;5;
79537;PMS5003;68989;52.032;5.152;2023-07-13T04:57:48;8;7;
79537;PMS5003;68989;52.032;5.152;2023-07-13T05:00:16;5;5;
79537;PMS5003;68989;52.032;5.152;2023-07-13T05:02:44;6;5;
79537;PMS5003;68989;52.032;5.152;2023-07-13T05:05:11;6;4;
79537;PMS5003;68989;52.032;5.152;2023-07-13T05:07:39;7;5;
79537;PMS5003;68989;52.032;5.152;2023-07-13T05:10:07;6;6;
79537;PMS5003;68989;52.032;5.152;2023-07-13T05:12:35;7;6;
79537;PMS5003;68989;52.032;5.152;2023-07-13T05:15:02;4;4;
79537;PMS5003;68989;52.032;5.152;2023-07-13T05:17:30;3;3;
79537;PMS5003;68989;52.032;5.152;2023-07-13T05:19:57;4;4;
79537;PMS5003;68989;52.032;5.152;2023-07-13T05:22:25;4;4;
79537;PMS5003;68989;52.032;5.152;2023-07-13T05:24:52;8;6;
79537;PMS5003;68989;52.032;5.152;2023-07-13T05:27:20;5;5;
79537;PMS5003;68989;52.032;5.152;2023-07-13T05:29:47;8;6;
79537;PMS5003;68989;52.032;5.152;2023-07-13T05:32:15;5;3;
79537;PMS5003;68989;52.032;5.152;2023-07-13T05:34:43;6;6;
79537;PMS5003;68989;52.032;5.152;2023-07-13T05:37:10;8;5;
79537;PMS5003;68989;52.032;5.152;2023-07-13T05:39:38;6;6;
79537;PMS5003;68989;52.032;5.152;2023-07-13T05:42:05;7;7;
79537;PMS5003;68989;52.032;5.152;2023-07-13T05:44:33;7;6;
79537;PMS5003;68989;52.032;5.152;2023-07-13T05:47:00;6;6;
79537;PMS5003;68989;52.032;5.152;2023-07-13T05:49:27;6;6;
79537;PMS5003;68989;52.032;5.152;2023-07-13T05:51:55;7;6;
79537;PMS5003;68989;52.032;5.152;2023-07-13T05:54:23;7;7;
79537;PMS5003;68989;52.032;5.152;2023-07-13T05:56:50;8;6;
79537;PMS5003;68989;52.032;5.152;2023-07-13T05:59:18;10;9;
79537;PMS5003;68989;52.032;5.152;2023-07-13T06:01:46;9;8;
79537;PMS5003;68989;52.032;5.152;2023-07-13T06:04:13;10;8;
79537;PMS5003;68989;52.032;5.152;2023-07-13T06:06:40;9;8;
79537;PMS5003;68989;52.032;5.152;2023-07-13T06:09:06;8;8;
79537;PMS5003;68989;52.032;5.152;2023-07-13T06:11:33;11;9;
79537;PMS5003;68989;52.032;5.152;2023-07-13T06:14:00;12;12;
79537;PMS5003;68989;52.032;5.152;2023-07-13T06:16:27;19;14;
79537;PMS5003;68989;52.032;5.152;2023-07-13T06:18:54;11;11;
79537;PMS5003;68989;52.032;5.152;2023-07-13T06:21:21;12;12;
79537;PMS5003;68989;52.032;5.152;2023-07-13T06:23:51;17;12;
79537;PMS5003;68989;52.032;5.152;2023-07-13T06:26:18;13;13;
79537;PMS5003;68989;52.032;5.152;2023-07-13T06:28:46;15;14;
79537;PMS5003;68989;52.032;5.152;2023-07-13T06:31:14;14;13;
79537;PMS5003;68989;52.032;5.152;2023-07-13T06:33:41;13;13;
79537;PMS5003;68989;52.032;5.152;2023-07-13T06:36:09;13;12;
79537;PMS5003;68989;52.032;5.152;2023-07-13T06:38:37;8;8;
79537;PMS5003;68989;52.032;5.152;2023-07-13T06:41:05;12;9;
79537;PMS5003;68989;52.032;5.152;2023-07-13T06:43:33;15;14;
79537;PMS5003;68989;52.032;5.152;2023-07-13T06:46:00;13;12;
79537;PMS5003;68989;52.032;5.152;2023-07-13T06:48:28;11;11;
79537;PMS5003;68989;52.032;5.152;2023-07-13T06:50:56;12;12;
79537;PMS5003;68989;52.032;5.152;2023-07-13T06:53:23;12;10;
79537;PMS5003;68989;52.032;5.152;2023-07-13T06:55:51;14;14;
79537;PMS5003;68989;52.032;5.152;2023-07-13T06:58:18;12;12;
79537;PMS5003;68989;52.032;5.152;2023-07-13T07:00:46;9;9;
79537;PMS5003;68989;52.032;5.152;2023-07-13T07:03:16;13;12;
79537;PMS5003;68989;52.032;5.152;2023-07-13T07:05:43;13;11;
79537;PMS5003;68989;52.032;5.152;2023-07-13T07:08:11;14;14;
79537;PMS5003;68989;52.032;5.152;2023-07-13T07:10:38;11;10;
79537;PMS5003;68989;52.032;5.152;2023-07-13T07:13:06;13;13;
79537;PMS5003;68989;52.032;5.152;2023-07-13T07:15:33;15;14;
79537;PMS5003;68989;52.032;5.152;2023-07-13T07:18:01;13;13;
79537;PMS5003;68989;52.032;5.152;2023-07-13T07:20:29;12;11;
79537;PMS5003;68989;52.032;5.152;2023-07-13T07:22:56;12;12;
79537;PMS5003;68989;52.032;5.152;2023-07-13T07:25:24;15;13;
79537;PMS5003;68989;52.032;5.152;2023-07-13T07:27:51;10;10;
79537;PMS5003;68989;52.032;5.152;2023-07-13T07:30:18;14;12;
79537;PMS5003;68989;52.032;5.152;2023-07-13T07:32:45;14;13;
79537;PMS5003;68989;52.032;5.152;2023-07-13T07:35:12;14;12;
79537;PMS5003;68989;52.032;5.152;2023-07-13T07:37:39;12;12;
79537;PMS5003;68989;52.032;5.152;2023-07-13T07:40:07;11;11;
79537;PMS5003;68989;52.032;5.152;2023-07-13T07:42:35;14;14;
79537;PMS5003;68989;52.032;5.152;2023-07-13T07:45:02;10;10;
79537;PMS5003;68989;52.032;5.152;2023-07-13T07:47:29;17;12;
79537;PMS5003;68989;52.032;5.152;2023-07-13T07:49:56;15;13;
79537;PMS5003;68989;52.032;5.152;2023-07-13T07:52:24;12;12;
79537;PMS5003;68989;52.032;5.152;2023-07-13T07:54:51;9;9;
79537;PMS5003;68989;52.032;5.152;2023-07-13T07:57:19;12;11;
79537;PMS5003;68989;52.032;5.152;2023-07-13T07:59:46;13;13;
79537;PMS5003;68989;52.032;5.152;2023-07-13T08:02:13;11;11;
79537;PMS5003;68989;52.032;5.152;2023-07-13T08:04:41;11;10;
79537;PMS5003;68989;52.032;5.152;2023-07-13T08:07:08;12;12;
79537;PMS5003;68989;52.032;5.152;2023-07-13T08:09:36;11;9;
79537;PMS5003;68989;52.032;5.152;2023-07-13T08:12:03;9;9;
79537;PMS5003;68989;52.032;5.152;2023-07-13T08:14:32;9;9;
79537;PMS5003;68989;52.032;5.152;2023-07-13T08:16:59;12;10;
79537;PMS5003;68989;52.032;5.152;2023-07-13T08:19:27;7;7;
79537;PMS5003;68989;52.032;5.152;2023-07-13T08:21:54;9;8;
79537;PMS5003;68989;52.032;5.152;2023-07-13T08:24:23;9;8;
79537;PMS5003;68989;52.032;5.152;2023-07-13T08:26:50;9;9;
79537;PMS5003;68989;52.032;5.152;2023-07-13T08:29:18;6;6;
79537;PMS5003;68989;52.032;5.152;2023-07-13T08:31:46;9;9;
79537;PMS5003;68989;52.032;5.152;2023-07-13T08:34:13;8;8;
79537;PMS5003;68989;52.032;5.152;2023-07-13T08:36:40;8;8;
79537;PMS5003;68989;52.032;5.152;2023-07-13T08:39:07;6;6;
79537;PMS5003;68989;52.032;5.152;2023-07-13T08:41:34;8;8;
79537;PMS5003;68989;52.032;5.152;2023-07-13T08:44:03;8;8;
79537;PMS5003;68989;52.032;5.152;2023-07-13T08:46:40;5;5;
79537;PMS5003;68989;52.032;5.152;2023-07-13T08:49:13;9;9;
79537;PMS5003;68989;52.032;5.152;2023-07-13T08:51:43;7;6;
79537;PMS5003;68989;52.032;5.152;2023-07-13T08:54:19;5;5;
79537;PMS5003;68989;52.032;5.152;2023-07-13T08:56:50;8;7;
79537;PMS5003;68989;52.032;5.152;2023-07-13T08:59:21;8;8;
79537;PMS5003;68989;52.032;5.152;2023-07-13T09:01:54;6;6;
79537;PMS5003;68989;52.032;5.152;2023-07-13T09:04:34;7;7;
79537;PMS5003;68989;52.032;5.152;2023-07-13T09:07:06;8;6;
79537;PMS5003;68989;52.032;5.152;2023-07-13T09:09:47;6;6;
79537;PMS5003;68989;52.032;5.152;2023-07-13T09:12:25;4;4;
79537;PMS5003;68989;52.032;5.152;2023-07-13T09:14:59;5;5;
79537;PMS5003;68989;52.032;5.152;2023-07-13T09:17:32;7;7;
79537;PMS5003;68989;52.032;5.152;2023-07-13T09:20:10;5;5;
79537;PMS5003;68989;52.032;5.152;2023-07-13T09:22:50;4;4;
79537;PMS5003;68989;52.032;5.152;2023-07-13T09:25:21;6;4;
79537;PMS5003;68989;52.032;5.152;2023-07-13T09:27:55;3;3;
79537;PMS5003;68989;52.032;5.152;2023-07-13T09:30:30;3;3;
79537;PMS5003;68989;52.032;5.152;2023-07-13T09:33:02;4;4;
79537;PMS5003;68989;52.032;5.152;2023-07-13T09:35:30;5;5;
79537;PMS5003;68989;52.032;5.152;2023-07-13T09:37:58;6;5;
79537;PMS5003;68989;52.032;5.152;2023-07-13T09:40:36;6;5;
79537;PMS5003;68989;52.032;5.152;2023-07-13T09:43:10;5;5;
79537;PMS5003;68989;52.032;5.152;2023-07-13T09:45:40;4;4;
79537;PMS5003;68989;52.032;5.152;2023-07-13T09:48:12;4;4;
79537;PMS5003;68989;52.032;5.152;2023-07-13T09:50:40;6;6;
79537;PMS5003;68989;52.032;5.152;2023-07-13T09:53:11;4;4;
79537;PMS5003;68989;52.032;5.152;2023-07-13T09:55:40;5;5;
79537;PMS5003;68989;52.032;5.152;2023-07-13T09:58:10;7;5;
79537;PMS5003;68989;52.032;5.152;2023-07-13T10:00:40;4;4;
79537;PMS5003;68989;52.032;5.152;2023-07-13T10:03:15;6;4;
79537;PMS5003;68989;52.032;5.152;2023-07-13T10:05:45;6;6;
79537;PMS5003;68989;52.032;5.152;2023-07-13T10:08:17;7;7;
79537;PMS5003;68989;52.032;5.152;2023-07-13T10:10:46;5;5;
79537;PMS5003;68989;52.032;5.152;2023-07-13T10:13:26;6;6;
79537;PMS5003;68989;52.032;5.152;2023-07-13T10:15:56;4;4;
79537;PMS5003;68989;52.032;5.152;2023-07-13T10:18:25;5;5;
79537;PMS5003;68989;52.032;5.152;2023-07-13T10:20:54;4;4;
79537;PMS5003;68989;52.032;5.152;2023-07-13T10:23:35;4;4;
79537;PMS5003;68989;52.032;5.152;2023-07-13T10:26:02;6;6;
79537;PMS5003;68989;52.032;5.152;2023-07-13T10:28:32;4;4;
79537;PMS5003;68989;52.032;5.152;2023-07-13T10:31:04;6;6;
79537;PMS5003;68989;52.032;5.152;2023-07-13T10:33:37;4;4;
79537;PMS5003;68989;52.032;5.152;2023-07-13T10:36:09;6;5;
79537;PMS5003;68989;52.032;5.152;2023-07-13T10:38:41;5;5;
79537;PMS5003;68989;52.032;5.152;2023-07-13T10:41:10;5;5;
79537;PMS5003;68989;52.032;5.152;2023-07-13T10:43:43;6;6;
79537;PMS5003;68989;52.032;5.152;2023-07-13T10:46:14;4;3;
79537;PMS5003;68989;52.032;5.152;2023-07-13T10:48:45;7;5;
79537;PMS5003;68989;52.032;5.152;2023-07-13T10:51:17;10;8;
79537;PMS5003;68989;52.032;5.152;2023-07-13T10:53:46;7;5;
79537;PMS5003;68989;52.032;5.152;2023-07-13T10:56:39;8;7;
79537;PMS5003;68989;52.032;5.152;2023-07-13T10:59:10;8;8;
79537;PMS5003;68989;52.032;5.152;2023-07-13T11:01:46;8;7;
79537;PMS5003;68989;52.032;5.152;2023-07-13T11:04:19;5;5;
79537;PMS5003;68989;52.032;5.152;2023-07-13T11:06:48;6;6;
79537;PMS5003;68989;52.032;5.152;2023-07-13T11:09:25;5;5;
79537;PMS5003;68989;52.032;5.152;2023-07-13T11:12:06;6;6;
79537;PMS5003;68989;52.032;5.152;2023-07-13T11:14:36;7;6;
79537;PMS5003;68989;52.032;5.152;2023-07-13T11:17:24;4;4;
79537;PMS5003;68989;52.032;5.152;2023-07-13T11:20:19;5;3;
79537;PMS5003;68989;52.032;5.152;2023-07-13T11:22:50;7;5;
79537;PMS5003;68989;52.032;5.152;2023-07-13T11:25:25;4;4;
79537;PMS5003;68989;52.032;5.152;2023-07-13T11:28:05;7;7;
79537;PMS5003;68989;52.032;5.152;2023-07-13T11:30:40;7;6;
79537;PMS5003;68989;52.032;5.152;2023-07-13T11:33:11;8;7;
79537;PMS5003;68989;52.032;5.152;2023-07-13T11:35:44;6;6;
79537;PMS5003;68989;52.032;5.152;2023-07-13T11:38:17;6;6;
79537;PMS5003;68989;52.032;5.152;2023-07-13T11:40:46;6;6;
79537;PMS5003;68989;52.032;5.152;2023-07-13T11:43:16;6;6;
79537;PMS5003;68989;52.032;5.152;2023-07-13T11:45:44;4;4;
79537;PMS5003;68989;52.032;5.152;2023-07-13T11:48:19;6;6;
79537;PMS5003;68989;52.032;5.152;2023-07-13T11:50:50;7;6;
79537;PMS5003;68989;52.032;5.152;2023-07-13T11:53:20;7;7;
79537;PMS5003;68989;52.032;5.152;2023-07-13T11:55:47;5;5;
79537;PMS5003;68989;52.032;5.152;2023-07-13T11:58:16;8;7;
79537;PMS5003;68989;52.032;5.152;2023-07-13T12:00:49;6;6;
79537;PMS5003;68989;52.032;5.152;2023-07-13T12:03:18;5;5;
79537;PMS5003;68989;52.032;5.152;2023-07-13T12:05:57;4;4;
79537;PMS5003;68989;52.032;5.152;2023-07-13T12:08:25;7;7;
79537;PMS5003;68989;52.032;5.152;2023-07-13T12:11:00;6;6;
79537;PMS5003;68989;52.032;5.152;2023-07-13T12:13:34;7;5;
79537;PMS5003;68989;52.032;5.152;2023-07-13T12:16:07;6;6;
79537;PMS5003;68989;52.032;5.152;2023-07-13T12:18:41;4;4;
79537;PMS5003;68989;52.032;5.152;2023-07-13T12:21:10;4;4;
79537;PMS5003;68989;52.032;5.152;2023-07-13T12:23:42;5;3;
79537;PMS5003;68989;52.032;5.152;2023-07-13T12:26:10;5;5;
79537;PMS5003;68989;52.032;5.152;2023-07-13T12:28:40;4;4;
79537;PMS5003;68989;52.032;5.152;2023-07-13T12:31:22;4;4;
79537;PMS5003;68989;52.032;5.152;2023-07-13T12:33:56;5;5;
79537;PMS5003;68989;52.032;5.152;2023-07-13T12:36:25;5;5;
79537;PMS5003;68989;52.032;5.152;2023-07-13T12:38:52;4;4;
79537;PMS5003;68989;52.032;5.152;2023-07-13T12:41:20;5;5;
79537;PMS5003;68989;52.032;5.152;2023-07-13T12:43:47;4;4;
79537;PMS5003;68989;52.032;5.152;2023-07-13T12:46:17;7;6;
79537;PMS5003;68989;52.032;5.152;2023-07-13T12:48:48;4;4;
79537;PMS5003;68989;52.032;5.152;2023-07-13T12:51:17;5;5;
79537;PMS5003;68989;52.032;5.152;2023-07-13T12:53:49;5;5;
79537;PMS5003;68989;52.032;5.152;2023-07-13T12:56:21;4;4;
79537;PMS5003;68989;52.032;5.152;2023-07-13T12:58:54;3;3;
79537;PMS5003;68989;52.032;5.152;2023-07-13T13:01:25;6;5;
79537;PMS5003;68989;52.032;5.152;2023-07-13T13:03:54;5;5;
79537;PMS5003;68989;52.032;5.152;2023-07-13T13:06:23;5;5;
79537;PMS5003;68989;52.032;5.152;2023-07-13T13:08:52;5;5;
79537;PMS5003;68989;52.032;5.152;2023-07-13T13:11:22;2;2;
79537;PMS5003;68989;52.032;5.152;2023-07-13T13:13:49;4;4;
79537;PMS5003;68989;52.032;5.152;2023-07-13T13:16:19;7;5;
79537;PMS5003;68989;52.032;5.152;2023-07-13T13:18:48;4;4;
79537;PMS5003;68989;52.032;5.152;2023-07-13T13:21:16;3;3;
79537;PMS5003;68989;52.032;5.152;2023-07-13T13:23:44;9;5;
79537;PMS5003;68989;52.032;5.152;2023-07-13T13:26:12;5;3;
79537;PMS5003;68989;52.032;5.152;2023-07-13T13:28:41;6;5;
79537;PMS5003;68989;52.032;5.152;2023-07-13T13:31:08;5;5;
79537;PMS5003;68989;52.032;5.152;2023-07-13T13:33:36;4;4;
79537;PMS5003;68989;52.032;5.152;2023-07-13T13:36:03;4;4;
79537;PMS5003;68989;52.032;5.152;2023-07-13T13:38:31;4;4;
79537;PMS5003;68989;52.032;5.152;2023-07-13T13:40:59;4;4;
79537;PMS5003;68989;52.032;5.152;2023-07-13T13:43:27;5;5;
79537;PMS5003;68989;52.032;5.152;2023-07-13T13:45:54;3;3;
79537;PMS5003;68989;52.032;5.152;2023-07-13T13:48:28;3;3;
79537;PMS5003;68989;52.032;5.152;2023-07-13T13:50:58;2;2;
79537;PMS5003;68989;52.032;5.152;2023-07-13T13:53:25;6;5;
79537;PMS5003;68989;52.032;5.152;2023-07-13T13:55:53;5;5;
79537;PMS5003;68989;52.032;5.152;2023-07-13T13:58:20;5;5;
79537;PMS5003;68989;52.032;5.152;2023-07-13T14:00:48;4;4;
79537;PMS5003;68989;52.032;5.152;2023-07-13T14:03:15;4;3;
79537;PMS5003;68989;52.032;5.152;2023-07-13T14:05:45;4;4;
79537;PMS5003;68989;52.032;5.152;2023-07-13T14:08:14;5;5;
79537;PMS5003;68989;52.032;5.152;2023-07-13T14:10:41;4;3;
79537;PMS5003;68989;52.032;5.152;2023-07-13T14:13:14;3;3;
79537;PMS5003;68989;52.032;5.152;2023-07-13T14:15:44;2;2;
79537;PMS5003;68989;52.032;5.152;2023-07-13T14:18:12;4;3;
79537;PMS5003;68989;52.032;5.152;2023-07-13T14:20:39;3;3;
79537;PMS5003;68989;52.032;5.152;2023-07-13T14:23:07;4;3;
79537;PMS5003;68989;52.032;5.152;2023-07-13T14:25:34;3;3;
79537;PMS5003;68989;52.032;5.152;2023-07-13T14:28:10;4;3;
79537;PMS5003;68989;52.032;5.152;2023-07-13T14:30:46;3;3;
79537;PMS5003;68989;52.032;5.152;2023-07-13T14:33:13;4;4;
79537;PMS5003;68989;52.032;5.152;2023-07-13T14:35:41;3;3;
79537;PMS5003;68989;52.032;5.152;2023-07-13T14:38:09;6;4;
79537;PMS5003;68989;52.032;5.152;2023-07-13T14:40:37;4;2;
79537;PMS5003;68989;52.032;5.152;2023-07-13T14:43:08;3;3;
79537;PMS5003;68989;52.032;5.152;2023-07-13T14:45:38;2;2;
79537;PMS5003;68989;52.032;5.152;2023-07-13T14:48:13;3;3;
79537;PMS5003;68989;52.032;5.152;2023-07-13T14:50:43;3;3;
79537;PMS5003;68989;52.032;5.152;2023-07-13T14:53:11;5;3;
79537;PMS5003;68989;52.032;5.152;2023-07-13T14:55:39;3;3;
79537;PMS5003;68989;52.032;5.152;2023-07-13T14:58:07;3;3;
79537;PMS5003;68989;52.032;5.152;2023-07-13T15:00:34;3;3;
79537;PMS5003;68989;52.032;5.152;2023-07-13T15:03:02;5;4;
79537;PMS5003;68989;52.032;5.152;2023-07-13T15:05:31;3;3;
79537;PMS5003;68989;52.032;5.152;2023-07-13T15:08:01;4;3;
79537;PMS5003;68989;52.032;5.152;2023-07-13T15:10:30;1;1;
79537;PMS5003;68989;52.032;5.152;2023-07-13T15:13:00;4;4;
79537;PMS5003;68989;52.032;5.152;2023-07-13T15:15:38;4;3;
79537;PMS5003;68989;52.032;5.152;2023-07-13T15:18:09;3;3;
79537;PMS5003;68989;52.032;5.152;2023-07-13T15:20:39;2;2;
79537;PMS5003;68989;52.032;5.152;2023-07-13T15:23:08;3;3;
79537;PMS5003;68989;52.032;5.152;2023-07-13T15:25:37;2;2;
79537;PMS5003;68989;52.032;5.152;2023-07-13T15:28:05;3;3;
79537;PMS5003;68989;52.032;5.152;2023-07-13T15:30:34;2;2;
79537;PMS5003;68989;52.032;5.152;2023-07-13T15:33:10;4;4;
79537;PMS5003;68989;52.032;5.152;2023-07-13T15:35:39;3;3;
79537;PMS5003;68989;52.032;5.152;2023-07-13T15:38:12;3;3;
79537;PMS5003;68989;52.032;5.152;2023-07-13T15:40:40;4;4;
79537;PMS5003;68989;52.032;5.152;2023-07-13T15:43:10;4;4;
79537;PMS5003;68989;52.032;5.152;2023-07-13T15:45:37;3;3;
79537;PMS5003;68989;52.032;5.152;2023-07-13T15:48:09;5;3;
79537;PMS5003;68989;52.032;5.152;2023-07-13T15:50:41;4;4;
79537;PMS5003;68989;52.032;5.152;2023-07-13T15:53:10;4;3;
79537;PMS5003;68989;52.032;5.152;2023-07-13T15:55:38;2;2;
79537;PMS5003;68989;52.032;5.152;2023-07-13T15:58:08;4;4;
79537;PMS5003;68989;52.032;5.152;2023-07-13T16:00:38;3;3;
79537;PMS5003;68989;52.032;5.152;2023-07-13T16:03:05;5;5;
79537;PMS5003;68989;52.032;5.152;2023-07-13T16:05:33;3;3;
79537;PMS5003;68989;52.032;5.152;2023-07-13T16:08:00;3;3;
79537;PMS5003;68989;52.032;5.152;2023-07-13T16:10:30;4;4;
79537;PMS5003;68989;52.032;5.152;2023-07-13T16:12:58;2;2;
79537;PMS5003;68989;52.032;5.152;2023-07-13T16:15:26;3;2;
79537;PMS5003;68989;52.032;5.152;2023-07-13T16:17:54;2;2;
79537;PMS5003;68989;52.032;5.152;2023-07-13T16:20:20;3;3;
79537;PMS5003;68989;52.032;5.152;2023-07-13T16:22:49;3;2;
79537;PMS5003;68989;52.032;5.152;2023-07-13T16:25:20;2;2;
79537;PMS5003;68989;52.032;5.152;2023-07-13T16:27:49;2;2;
79537;PMS5003;68989;52.032;5.152;2023-07-13T16:30:18;2;2;
79537;PMS5003;68989;52.032;5.152;2023-07-13T16:32:47;2;2;
79537;PMS5003;68989;52.032;5.152;2023-07-13T16:35:14;3;3;
79537;PMS5003;68989;52.032;5.152;2023-07-13T16:37:41;3;3;
79537;PMS5003;68989;52.032;5.152;2023-07-13T16:40:17;1;1;
79537;PMS5003;68989;52.032;5.152;2023-07-13T16:42:47;2;2;
79537;PMS5003;68989;52.032;5.152;2023-07-13T16:45:15;3;3;
79537;PMS5003;68989;52.032;5.152;2023-07-13T16:47:43;3;3;
79537;PMS5003;68989;52.032;5.152;2023-07-13T16:50:14;2;2;
79537;PMS5003;68989;52.032;5.152;2023-07-13T16:52:41;3;3;
79537;PMS5003;68989;52.032;5.152;2023-07-13T16:55:10;2;2;
79537;PMS5003;68989;52.032;5.152;2023-07-13T16:57:37;1;1;
79537;PMS5003;68989;52.032;5.152;2023-07-13T17:00:08;3;3;
79537;PMS5003;68989;52.032;5.152;2023-07-13T17:00:20;3;3;